sensor_id;sensor_type;location;lat;lon;timestamp;P1;durP1;ratioP1;P2;durP2;ratioP2
54388;SDS011;40975;50.390;8.640;2023-05-10T00:00:26;0.10;;;0.10;;
54388;SDS011;40975;50.390;8.640;2023-05-10T00:02:51;0.10;;;0.10;;
54388;SDS011;40975;50.390;8.640;2023-05-10T00:05:17;0.10;;;0.10;;
54388;SDS011;40975;50.390;8.640;2023-05-10T00:07:42;0.38;;;0.10;;
54388;SDS011;40975;50.390;8.640;2023-05-10T00:10:11;0.40;;;0.20;;
54388;SDS011;40975;50.390;8.640;2023-05-10T00:12:36;0.20;;;0.15;;
54388;SDS011;40975;50.390;8.640;2023-05-10T00:15:02;0.13;;;0.13;;
54388;SDS011;40975;50.390;8.640;2023-05-10T00:17:28;0.10;;;0.10;;
54388;SDS011;40975;50.390;8.640;2023-05-10T00:19:53;0.17;;;0.17;;
54388;SDS011;40975;50.390;8.640;2023-05-10T00:22:19;0.73;;;0.15;;
54388;SDS011;40975;50.390;8.640;2023-05-10T00:24:45;1.13;;;0.10;;
54388;SDS011;40975;50.390;8.640;2023-05-10T00:27:10;0.10;;;0.10;;
54388;SDS011;40975;50.390;8.640;2023-05-10T00:29:35;0.20;;;0.20;;
54388;SDS011;40975;50.390;8.640;2023-05-10T00:32:01;0.10;;;0.10;;
54388;SDS011;40975;50.390;8.640;2023-05-10T00:34:26;4.10;;;0.50;;
54388;SDS011;40975;50.390;8.640;2023-05-10T00:36:52;0.22;;;0.20;;
54388;SDS011;40975;50.390;8.640;2023-05-10T00:39:17;0.17;;;0.17;;
54388;SDS011;40975;50.390;8.640;2023-05-10T00:41:43;0.25;;;0.13;;
54388;SDS011;40975;50.390;8.640;2023-05-10T00:44:08;1.95;;;0.30;;
54388;SDS011;40975;50.390;8.640;2023-05-10T00:46:34;0.73;;;0.22;;
54388;SDS011;40975;50.390;8.640;2023-05-10T00:48:59;1.08;;;0.40;;
54388;SDS011;40975;50.390;8.640;2023-05-10T00:51:25;1.88;;;0.28;;
54388;SDS011;40975;50.390;8.640;2023-05-10T00:53:50;5.10;;;0.40;;
54388;SDS011;40975;50.390;8.640;2023-05-10T00:56:16;0.20;;;0.20;;
54388;SDS011;40975;50.390;8.640;2023-05-10T00:58:42;0.13;;;0.13;;
54388;SDS011;40975;50.390;8.640;2023-05-10T01:01:08;0.20;;;0.15;;
54388;SDS011;40975;50.390;8.640;2023-05-10T01:03:34;0.10;;;0.10;;
54388;SDS011;40975;50.390;8.640;2023-05-10T01:06:00;0.17;;;0.10;;
54388;SDS011;40975;50.390;8.640;2023-05-10T01:08:25;0.20;;;0.20;;
54388;SDS011;40975;50.390;8.640;2023-05-10T01:10:51;4.20;;;0.30;;
54388;SDS011;40975;50.390;8.640;2023-05-10T01:13:18;0.10;;;0.10;;
54388;SDS011;40975;50.390;8.640;2023-05-10T01:16:09;0.45;;;0.17;;
54388;SDS011;40975;50.390;8.640;2023-05-10T01:18:35;0.43;;;0.43;;
54388;SDS011;40975;50.390;8.640;2023-05-10T01:32:32;0.10;;;0.10;;
54388;SDS011;40975;50.390;8.640;2023-05-10T01:37:49;0.10;;;0.10;;
54388;SDS011;40975;50.390;8.640;2023-05-10T01:40:29;0.20;;;0.20;;
54388;SDS011;40975;50.390;8.640;2023-05-10T01:43:02;0.10;;;0.10;;
54388;SDS011;40975;50.390;8.640;2023-05-10T01:48:16;0.50;;;0.20;;
54388;SDS011;40975;50.390;8.640;2023-05-10T01:50:43;0.30;;;0.22;;
54388;SDS011;40975;50.390;8.640;2023-05-10T01:53:11;0.75;;;0.73;;
54388;SDS011;40975;50.390;8.640;2023-05-10T01:55:47;0.40;;;0.20;;
54388;SDS011;40975;50.390;8.640;2023-05-10T01:58:17;0.22;;;0.22;;
54388;SDS011;40975;50.390;8.640;2023-05-10T02:00:46;0.10;;;0.10;;
54388;SDS011;40975;50.390;8.640;2023-05-10T02:03:13;0.40;;;0.20;;
54388;SDS011;40975;50.390;8.640;2023-05-10T02:05:41;0.13;;;0.13;;
54388;SDS011;40975;50.390;8.640;2023-05-10T02:08:10;0.10;;;0.10;;
54388;SDS011;40975;50.390;8.640;2023-05-10T02:10:36;2.63;;;0.28;;
54388;SDS011;40975;50.390;8.640;2023-05-10T02:13:04;0.20;;;0.20;;
54388;SDS011;40975;50.390;8.640;2023-05-10T02:15:32;0.20;;;0.20;;
54388;SDS011;40975;50.390;8.640;2023-05-10T02:17:58;4.05;;;0.35;;
54388;SDS011;40975;50.390;8.640;2023-05-10T02:20:25;0.55;;;0.30;;
54388;SDS011;40975;50.390;8.640;2023-05-10T02:22:52;0.47;;;0.38;;
54388;SDS011;40975;50.390;8.640;2023-05-10T02:25:21;0.40;;;0.40;;
54388;SDS011;40975;50.390;8.640;2023-05-10T02:27:48;0.45;;;0.30;;
54388;SDS011;40975;50.390;8.640;2023-05-10T02:30:14;0.43;;;0.20;;
54388;SDS011;40975;50.390;8.640;2023-05-10T02:32:41;0.20;;;0.20;;
54388;SDS011;40975;50.390;8.640;2023-05-10T02:35:08;5.30;;;0.47;;
54388;SDS011;40975;50.390;8.640;2023-05-10T02:37:36;0.30;;;0.25;;
54388;SDS011;40975;50.390;8.640;2023-05-10T02:40:03;0.30;;;0.30;;
54388;SDS011;40975;50.390;8.640;2023-05-10T02:42:31;0.20;;;0.20;;
54388;SDS011;40975;50.390;8.640;2023-05-10T02:45:00;1.42;;;0.20;;
54388;SDS011;40975;50.390;8.640;2023-05-10T02:47:28;0.45;;;0.40;;
54388;SDS011;40975;50.390;8.640;2023-05-10T02:49:53;0.68;;;0.32;;
54388;SDS011;40975;50.390;8.640;2023-05-10T02:52:21;0.55;;;0.28;;
54388;SDS011;40975;50.390;8.640;2023-05-10T02:54:51;0.32;;;0.30;;
54388;SDS011;40975;50.390;8.640;2023-05-10T02:57:27;0.30;;;0.30;;
54388;SDS011;40975;50.390;8.640;2023-05-10T02:59:56;0.30;;;0.30;;
54388;SDS011;40975;50.390;8.640;2023-05-10T03:02:22;0.35;;;0.30;;
54388;SDS011;40975;50.390;8.640;2023-05-10T03:04:48;1.55;;;0.40;;
54388;SDS011;40975;50.390;8.640;2023-05-10T03:07:13;0.57;;;0.52;;
54388;SDS011;40975;50.390;8.640;2023-05-10T03:09:39;0.32;;;0.32;;
54388;SDS011;40975;50.390;8.640;2023-05-10T03:12:07;0.40;;;0.40;;
54388;SDS011;40975;50.390;8.640;2023-05-10T03:14:47;0.65;;;0.45;;
54388;SDS011;40975;50.390;8.640;2023-05-10T03:17:25;0.70;;;0.65;;
54388;SDS011;40975;50.390;8.640;2023-05-10T03:19:57;0.60;;;0.40;;
54388;SDS011;40975;50.390;8.640;2023-05-10T03:22:30;0.40;;;0.40;;
54388;SDS011;40975;50.390;8.640;2023-05-10T03:24:59;1.00;;;0.38;;
54388;SDS011;40975;50.390;8.640;2023-05-10T03:27:29;0.50;;;0.40;;
54388;SDS011;40975;50.390;8.640;2023-05-10T03:29:55;0.73;;;0.38;;
54388;SDS011;40975;50.390;8.640;2023-05-10T03:32:21;0.50;;;0.50;;
54388;SDS011;40975;50.390;8.640;2023-05-10T03:34:48;0.40;;;0.40;;
54388;SDS011;40975;50.390;8.640;2023-05-10T03:37:13;0.30;;;0.30;;
54388;SDS011;40975;50.390;8.640;2023-05-10T03:39:39;2.22;;;0.60;;
54388;SDS011;40975;50.390;8.640;2023-05-10T03:42:06;1.40;;;0.50;;
54388;SDS011;40975;50.390;8.640;2023-05-10T03:44:32;0.55;;;0.50;;
54388;SDS011;40975;50.390;8.640;2023-05-10T03:46:58;0.40;;;0.40;;
54388;SDS011;40975;50.390;8.640;2023-05-10T03:49:24;0.68;;;0.40;;
54388;SDS011;40975;50.390;8.640;2023-05-10T03:51:50;0.40;;;0.40;;
54388;SDS011;40975;50.390;8.640;2023-05-10T03:54:15;1.35;;;0.45;;
54388;SDS011;40975;50.390;8.640;2023-05-10T03:56:41;0.63;;;0.35;;
54388;SDS011;40975;50.390;8.640;2023-05-10T03:59:06;0.77;;;0.55;;
54388;SDS011;40975;50.390;8.640;2023-05-10T04:01:34;0.30;;;0.30;;
54388;SDS011;40975;50.390;8.640;2023-05-10T04:03:59;0.52;;;0.35;;
54388;SDS011;40975;50.390;8.640;2023-05-10T04:06:25;0.45;;;0.40;;
54388;SDS011;40975;50.390;8.640;2023-05-10T04:08:51;1.08;;;0.50;;
54388;SDS011;40975;50.390;8.640;2023-05-10T04:11:16;1.05;;;0.40;;
54388;SDS011;40975;50.390;8.640;2023-05-10T04:13:42;0.60;;;0.60;;
54388;SDS011;40975;50.390;8.640;2023-05-10T04:16:08;0.98;;;0.50;;
54388;SDS011;40975;50.390;8.640;2023-05-10T04:18:33;0.55;;;0.55;;
54388;SDS011;40975;50.390;8.640;2023-05-10T04:20:59;0.40;;;0.40;;
54388;SDS011;40975;50.390;8.640;2023-05-10T04:23:24;1.70;;;0.50;;
54388;SDS011;40975;50.390;8.640;2023-05-10T04:25:49;0.60;;;0.40;;
54388;SDS011;40975;50.390;8.640;2023-05-10T04:28:15;0.40;;;0.40;;
54388;SDS011;40975;50.390;8.640;2023-05-10T04:30:40;0.47;;;0.43;;
54388;SDS011;40975;50.390;8.640;2023-05-10T04:33:06;3.03;;;0.60;;
54388;SDS011;40975;50.390;8.640;2023-05-10T04:35:31;1.88;;;0.50;;
54388;SDS011;40975;50.390;8.640;2023-05-10T04:37:57;1.85;;;0.50;;
54388;SDS011;40975;50.390;8.640;2023-05-10T04:40:22;1.85;;;0.50;;
54388;SDS011;40975;50.390;8.640;2023-05-10T04:42:47;0.40;;;0.40;;
54388;SDS011;40975;50.390;8.640;2023-05-10T04:45:13;4.13;;;0.60;;
54388;SDS011;40975;50.390;8.640;2023-05-10T04:47:39;0.55;;;0.52;;
54388;SDS011;40975;50.390;8.640;2023-05-10T04:50:05;0.77;;;0.50;;
54388;SDS011;40975;50.390;8.640;2023-05-10T04:52:31;0.95;;;0.47;;
54388;SDS011;40975;50.390;8.640;2023-05-10T04:54:56;7.43;;;0.93;;
54388;SDS011;40975;50.390;8.640;2023-05-10T04:57:22;0.50;;;0.40;;
54388;SDS011;40975;50.390;8.640;2023-05-10T04:59:47;0.45;;;0.45;;
54388;SDS011;40975;50.390;8.640;2023-05-10T05:02:12;2.95;;;0.60;;
54388;SDS011;40975;50.390;8.640;2023-05-10T05:04:38;1.42;;;0.50;;
54388;SDS011;40975;50.390;8.640;2023-05-10T05:07:03;0.47;;;0.40;;
54388;SDS011;40975;50.390;8.640;2023-05-10T05:09:28;2.45;;;0.60;;
54388;SDS011;40975;50.390;8.640;2023-05-10T05:11:54;0.45;;;0.43;;
54388;SDS011;40975;50.390;8.640;2023-05-10T05:14:19;0.38;;;0.25;;
54388;SDS011;40975;50.390;8.640;2023-05-10T05:16:46;1.13;;;0.30;;
54388;SDS011;40975;50.390;8.640;2023-05-10T05:19:11;0.57;;;0.40;;
54388;SDS011;40975;50.390;8.640;2023-05-10T05:21:37;1.50;;;0.40;;
54388;SDS011;40975;50.390;8.640;2023-05-10T05:24:02;0.75;;;0.32;;
54388;SDS011;40975;50.390;8.640;2023-05-10T05:26:28;2.45;;;0.43;;
54388;SDS011;40975;50.390;8.640;2023-05-10T05:28:53;1.50;;;0.50;;
54388;SDS011;40975;50.390;8.640;2023-05-10T05:31:19;1.92;;;0.50;;
54388;SDS011;40975;50.390;8.640;2023-05-10T05:33:45;0.47;;;0.30;;
54388;SDS011;40975;50.390;8.640;2023-05-10T05:36:11;0.30;;;0.20;;
54388;SDS011;40975;50.390;8.640;2023-05-10T05:38:36;0.40;;;0.40;;
54388;SDS011;40975;50.390;8.640;2023-05-10T05:41:02;0.20;;;0.20;;
54388;SDS011;40975;50.390;8.640;2023-05-10T05:43:28;1.42;;;0.60;;
54388;SDS011;40975;50.390;8.640;2023-05-10T05:45:53;1.20;;;0.40;;
54388;SDS011;40975;50.390;8.640;2023-05-10T05:48:19;0.88;;;0.20;;
54388;SDS011;40975;50.390;8.640;2023-05-10T05:50:44;0.20;;;0.20;;
54388;SDS011;40975;50.390;8.640;2023-05-10T05:53:10;1.67;;;0.28;;
54388;SDS011;40975;50.390;8.640;2023-05-10T05:55:36;0.20;;;0.20;;
54388;SDS011;40975;50.390;8.640;2023-05-10T05:58:01;1.55;;;0.40;;
54388;SDS011;40975;50.390;8.640;2023-05-10T06:00:26;1.80;;;0.20;;
54388;SDS011;40975;50.390;8.640;2023-05-10T06:02:52;0.70;;;0.30;;
54388;SDS011;40975;50.390;8.640;2023-05-10T06:05:17;0.90;;;0.20;;
54388;SDS011;40975;50.390;8.640;2023-05-10T06:07:42;0.20;;;0.20;;
54388;SDS011;40975;50.390;8.640;2023-05-10T06:10:08;0.30;;;0.28;;
54388;SDS011;40975;50.390;8.640;2023-05-10T06:12:34;0.95;;;0.20;;
54388;SDS011;40975;50.390;8.640;2023-05-10T06:14:59;0.30;;;0.30;;
54388;SDS011;40975;50.390;8.640;2023-05-10T06:17:25;0.30;;;0.30;;
54388;SDS011;40975;50.390;8.640;2023-05-10T06:19:51;0.10;;;0.10;;
54388;SDS011;40975;50.390;8.640;2023-05-10T06:22:16;0.20;;;0.17;;
54388;SDS011;40975;50.390;8.640;2023-05-10T06:24:42;0.30;;;0.20;;
54388;SDS011;40975;50.390;8.640;2023-05-10T06:27:08;0.45;;;0.35;;
54388;SDS011;40975;50.390;8.640;2023-05-10T06:29:34;0.20;;;0.20;;
54388;SDS011;40975;50.390;8.640;2023-05-10T06:31:59;0.30;;;0.25;;
54388;SDS011;40975;50.390;8.640;2023-05-10T06:34:24;0.20;;;0.20;;
54388;SDS011;40975;50.390;8.640;2023-05-10T06:36:50;0.50;;;0.20;;
54388;SDS011;40975;50.390;8.640;2023-05-10T06:39:15;0.20;;;0.20;;
54388;SDS011;40975;50.390;8.640;2023-05-10T06:41:41;0.35;;;0.10;;
54388;SDS011;40975;50.390;8.640;2023-05-10T06:44:06;1.02;;;0.30;;
54388;SDS011;40975;50.390;8.640;2023-05-10T06:46:32;0.40;;;0.40;;
54388;SDS011;40975;50.390;8.640;2023-05-10T06:48:57;0.47;;;0.32;;
54388;SDS011;40975;50.390;8.640;2023-05-10T06:51:22;0.85;;;0.30;;
54388;SDS011;40975;50.390;8.640;2023-05-10T06:53:48;0.40;;;0.30;;
54388;SDS011;40975;50.390;8.640;2023-05-10T06:56:13;1.10;;;0.40;;
54388;SDS011;40975;50.390;8.640;2023-05-10T06:58:39;0.35;;;0.30;;
54388;SDS011;40975;50.390;8.640;2023-05-10T07:01:04;0.30;;;0.30;;
54388;SDS011;40975;50.390;8.640;2023-05-10T07:03:30;0.32;;;0.20;;
54388;SDS011;40975;50.390;8.640;2023-05-10T07:05:59;0.22;;;0.20;;
54388;SDS011;40975;50.390;8.640;2023-05-10T07:08:26;0.30;;;0.30;;
54388;SDS011;40975;50.390;8.640;2023-05-10T07:10:51;0.20;;;0.20;;
54388;SDS011;40975;50.390;8.640;2023-05-10T07:13:17;0.52;;;0.38;;
54388;SDS011;40975;50.390;8.640;2023-05-10T07:15:42;0.40;;;0.22;;
54388;SDS011;40975;50.390;8.640;2023-05-10T07:18:07;2.35;;;0.32;;
54388;SDS011;40975;50.390;8.640;2023-05-10T07:20:33;0.40;;;0.40;;
54388;SDS011;40975;50.390;8.640;2023-05-10T07:22:58;0.25;;;0.25;;
54388;SDS011;40975;50.390;8.640;2023-05-10T07:25:23;0.93;;;0.40;;
54388;SDS011;40975;50.390;8.640;2023-05-10T07:27:49;0.50;;;0.47;;
54388;SDS011;40975;50.390;8.640;2023-05-10T07:30:14;1.27;;;0.68;;
54388;SDS011;40975;50.390;8.640;2023-05-10T07:32:40;1.88;;;0.90;;
54388;SDS011;40975;50.390;8.640;2023-05-10T07:35:06;0.95;;;0.80;;
54388;SDS011;40975;50.390;8.640;2023-05-10T07:37:32;1.55;;;1.10;;
54388;SDS011;40975;50.390;8.640;2023-05-10T07:39:58;1.52;;;1.10;;
54388;SDS011;40975;50.390;8.640;2023-05-10T07:42:23;2.72;;;0.88;;
54388;SDS011;40975;50.390;8.640;2023-05-10T07:44:48;2.42;;;1.50;;
54388;SDS011;40975;50.390;8.640;2023-05-10T07:47:14;2.88;;;1.13;;
54388;SDS011;40975;50.390;8.640;2023-05-10T07:49:39;1.42;;;1.08;;
54388;SDS011;40975;50.390;8.640;2023-05-10T07:52:04;2.55;;;1.30;;
54388;SDS011;40975;50.390;8.640;2023-05-10T07:54:30;2.33;;;1.13;;
54388;SDS011;40975;50.390;8.640;2023-05-10T07:56:55;1.58;;;1.23;;
54388;SDS011;40975;50.390;8.640;2023-05-10T07:59:21;2.35;;;1.60;;
54388;SDS011;40975;50.390;8.640;2023-05-10T08:01:46;2.90;;;1.60;;
54388;SDS011;40975;50.390;8.640;2023-05-10T08:04:11;4.45;;;2.05;;
54388;SDS011;40975;50.390;8.640;2023-05-10T08:06:37;2.20;;;1.90;;
54388;SDS011;40975;50.390;8.640;2023-05-10T08:09:02;3.58;;;1.45;;
54388;SDS011;40975;50.390;8.640;2023-05-10T08:11:27;2.10;;;1.83;;
54388;SDS011;40975;50.390;8.640;2023-05-10T08:13:53;4.22;;;2.03;;
54388;SDS011;40975;50.390;8.640;2023-05-10T08:16:19;3.72;;;1.80;;
54388;SDS011;40975;50.390;8.640;2023-05-10T08:18:45;2.72;;;1.95;;
54388;SDS011;40975;50.390;8.640;2023-05-10T08:21:11;2.97;;;1.90;;
54388;SDS011;40975;50.390;8.640;2023-05-10T08:23:37;2.60;;;2.10;;
54388;SDS011;40975;50.390;8.640;2023-05-10T08:26:02;4.50;;;1.90;;
54388;SDS011;40975;50.390;8.640;2023-05-10T08:28:28;4.47;;;1.65;;
54388;SDS011;40975;50.390;8.640;2023-05-10T08:30:53;3.08;;;1.85;;
54388;SDS011;40975;50.390;8.640;2023-05-10T08:33:19;3.45;;;1.92;;
54388;SDS011;40975;50.390;8.640;2023-05-10T08:35:44;3.25;;;1.80;;
54388;SDS011;40975;50.390;8.640;2023-05-10T08:38:10;2.38;;;1.40;;
54388;SDS011;40975;50.390;8.640;2023-05-10T08:40:39;2.58;;;1.60;;
54388;SDS011;40975;50.390;8.640;2023-05-10T08:45:36;4.28;;;1.52;;
54388;SDS011;40975;50.390;8.640;2023-05-10T08:48:05;1.77;;;1.30;;
54388;SDS011;40975;50.390;8.640;2023-05-10T08:50:31;1.90;;;1.05;;
54388;SDS011;40975;50.390;8.640;2023-05-10T08:52:57;2.20;;;1.20;;
54388;SDS011;40975;50.390;8.640;2023-05-10T08:55:26;3.55;;;1.15;;
54388;SDS011;40975;50.390;8.640;2023-05-10T08:57:53;2.50;;;0.80;;
54388;SDS011;40975;50.390;8.640;2023-05-10T09:00:18;1.02;;;0.63;;
54388;SDS011;40975;50.390;8.640;2023-05-10T09:02:44;2.00;;;0.60;;
54388;SDS011;40975;50.390;8.640;2023-05-10T09:05:13;0.95;;;0.90;;
54388;SDS011;40975;50.390;8.640;2023-05-10T09:07:40;1.20;;;0.55;;
54388;SDS011;40975;50.390;8.640;2023-05-10T09:10:06;2.92;;;1.13;;
54388;SDS011;40975;50.390;8.640;2023-05-10T09:12:32;1.50;;;0.93;;
54388;SDS011;40975;50.390;8.640;2023-05-10T09:14:59;3.35;;;1.40;;
54388;SDS011;40975;50.390;8.640;2023-05-10T09:17:25;1.70;;;0.98;;
54388;SDS011;40975;50.390;8.640;2023-05-10T09:20:02;1.27;;;0.85;;
54388;SDS011;40975;50.390;8.640;2023-05-10T09:22:29;1.35;;;1.00;;
54388;SDS011;40975;50.390;8.640;2023-05-10T09:25:11;2.58;;;1.25;;
54388;SDS011;40975;50.390;8.640;2023-05-10T09:27:41;1.27;;;0.80;;
54388;SDS011;40975;50.390;8.640;2023-05-10T09:30:10;1.00;;;0.90;;
54388;SDS011;40975;50.390;8.640;2023-05-10T09:32:41;2.57;;;1.17;;
54388;SDS011;40975;50.390;8.640;2023-05-10T09:35:11;1.45;;;1.00;;
54388;SDS011;40975;50.390;8.640;2023-05-10T09:37:38;3.05;;;1.27;;
54388;SDS011;40975;50.390;8.640;2023-05-10T09:40:07;2.85;;;1.00;;
54388;SDS011;40975;50.390;8.640;2023-05-10T09:42:34;1.63;;;0.90;;
54388;SDS011;40975;50.390;8.640;2023-05-10T09:45:01;0.90;;;0.90;;
54388;SDS011;40975;50.390;8.640;2023-05-10T09:47:31;1.23;;;1.13;;
54388;SDS011;40975;50.390;8.640;2023-05-10T09:49:57;1.92;;;0.80;;
54388;SDS011;40975;50.390;8.640;2023-05-10T09:52:27;3.40;;;0.73;;
54388;SDS011;40975;50.390;8.640;2023-05-10T09:54:53;1.63;;;0.60;;
54388;SDS011;40975;50.390;8.640;2023-05-10T09:57:20;2.22;;;0.80;;
54388;SDS011;40975;50.390;8.640;2023-05-10T09:59:47;0.90;;;0.52;;
54388;SDS011;40975;50.390;8.640;2023-05-10T10:02:13;1.08;;;0.60;;
54388;SDS011;40975;50.390;8.640;2023-05-10T10:04:39;1.38;;;0.60;;
54388;SDS011;40975;50.390;8.640;2023-05-10T10:07:05;2.17;;;0.70;;
54388;SDS011;40975;50.390;8.640;2023-05-10T10:09:32;1.52;;;0.60;;
54388;SDS011;40975;50.390;8.640;2023-05-10T10:11:59;1.25;;;0.60;;
54388;SDS011;40975;50.390;8.640;2023-05-10T10:14:25;5.43;;;0.75;;
54388;SDS011;40975;50.390;8.640;2023-05-10T10:16:50;1.02;;;0.50;;
54388;SDS011;40975;50.390;8.640;2023-05-10T10:19:19;0.63;;;0.63;;
54388;SDS011;40975;50.390;8.640;2023-05-10T10:21:45;1.58;;;0.60;;
54388;SDS011;40975;50.390;8.640;2023-05-10T10:24:11;2.42;;;0.70;;
54388;SDS011;40975;50.390;8.640;2023-05-10T10:26:37;1.25;;;0.60;;
54388;SDS011;40975;50.390;8.640;2023-05-10T10:29:16;2.30;;;0.70;;
54388;SDS011;40975;50.390;8.640;2023-05-10T10:32:18;1.95;;;0.65;;
54388;SDS011;40975;50.390;8.640;2023-05-10T10:34:48;3.72;;;0.82;;
54388;SDS011;40975;50.390;8.640;2023-05-10T10:37:14;0.80;;;0.70;;
54388;SDS011;40975;50.390;8.640;2023-05-10T10:39:39;1.35;;;0.70;;
54388;SDS011;40975;50.390;8.640;2023-05-10T10:42:05;1.20;;;0.60;;
54388;SDS011;40975;50.390;8.640;2023-05-10T10:52:14;0.73;;;0.73;;
54388;SDS011;40975;50.390;8.640;2023-05-10T10:57:24;1.98;;;1.00;;
54388;SDS011;40975;50.390;8.640;2023-05-10T10:59:51;0.90;;;0.50;;
54388;SDS011;40975;50.390;8.640;2023-05-10T11:02:43;1.67;;;0.50;;
54388;SDS011;40975;50.390;8.640;2023-05-10T11:05:23;1.67;;;0.70;;
54388;SDS011;40975;50.390;8.640;2023-05-10T11:07:59;0.55;;;0.52;;
54388;SDS011;40975;50.390;8.640;2023-05-10T11:10:31;1.88;;;0.50;;
54388;SDS011;40975;50.390;8.640;2023-05-10T11:13:03;1.35;;;0.55;;
54388;SDS011;40975;50.390;8.640;2023-05-10T11:15:37;0.50;;;0.50;;
54388;SDS011;40975;50.390;8.640;2023-05-10T11:18:16;0.90;;;0.80;;
54388;SDS011;40975;50.390;8.640;2023-05-10T11:20:50;0.52;;;0.50;;
54388;SDS011;40975;50.390;8.640;2023-05-10T11:23:21;0.45;;;0.40;;
54388;SDS011;40975;50.390;8.640;2023-05-10T11:25:47;0.40;;;0.40;;
54388;SDS011;40975;50.390;8.640;2023-05-10T11:28:14;0.50;;;0.50;;
54388;SDS011;40975;50.390;8.640;2023-05-10T11:30:39;0.40;;;0.30;;
54388;SDS011;40975;50.390;8.640;2023-05-10T11:33:07;0.60;;;0.40;;
54388;SDS011;40975;50.390;8.640;2023-05-10T11:35:37;0.50;;;0.40;;
54388;SDS011;40975;50.390;8.640;2023-05-10T11:38:08;0.88;;;0.40;;
54388;SDS011;40975;50.390;8.640;2023-05-10T11:40:34;0.55;;;0.50;;
54388;SDS011;40975;50.390;8.640;2023-05-10T11:43:00;0.60;;;0.60;;
54388;SDS011;40975;50.390;8.640;2023-05-10T11:45:26;1.65;;;0.60;;
54388;SDS011;40975;50.390;8.640;2023-05-10T11:47:52;1.55;;;0.47;;
54388;SDS011;40975;50.390;8.640;2023-05-10T11:50:18;1.02;;;0.40;;
54388;SDS011;40975;50.390;8.640;2023-05-10T11:52:43;0.57;;;0.40;;
54388;SDS011;40975;50.390;8.640;2023-05-10T11:55:08;0.32;;;0.32;;
54388;SDS011;40975;50.390;8.640;2023-05-10T11:57:34;0.60;;;0.43;;
54388;SDS011;40975;50.390;8.640;2023-05-10T12:00:03;1.80;;;0.73;;
54388;SDS011;40975;50.390;8.640;2023-05-10T12:02:32;1.33;;;0.50;;
54388;SDS011;40975;50.390;8.640;2023-05-10T12:04:58;1.10;;;0.50;;
54388;SDS011;40975;50.390;8.640;2023-05-10T12:07:23;0.30;;;0.30;;
54388;SDS011;40975;50.390;8.640;2023-05-10T12:10:07;0.30;;;0.30;;
54388;SDS011;40975;50.390;8.640;2023-05-10T12:12:39;0.82;;;0.30;;
54388;SDS011;40975;50.390;8.640;2023-05-10T12:15:16;0.50;;;0.20;;
54388;SDS011;40975;50.390;8.640;2023-05-10T12:17:44;0.30;;;0.30;;
54388;SDS011;40975;50.390;8.640;2023-05-10T12:20:22;0.32;;;0.30;;
54388;SDS011;40975;50.390;8.640;2023-05-10T12:22:53;0.40;;;0.32;;
54388;SDS011;40975;50.390;8.640;2023-05-10T12:25:20;0.93;;;0.40;;
54388;SDS011;40975;50.390;8.640;2023-05-10T12:27:50;0.55;;;0.30;;
54388;SDS011;40975;50.390;8.640;2023-05-10T12:32:49;1.23;;;0.38;;
54388;SDS011;40975;50.390;8.640;2023-05-10T12:35:14;2.05;;;0.50;;
54388;SDS011;40975;50.390;8.640;2023-05-10T12:37:41;1.33;;;0.28;;
54388;SDS011;40975;50.390;8.640;2023-05-10T12:40:10;0.30;;;0.30;;
54388;SDS011;40975;50.390;8.640;2023-05-10T12:42:37;0.50;;;0.30;;
54388;SDS011;40975;50.390;8.640;2023-05-10T12:45:04;1.83;;;0.40;;
54388;SDS011;40975;50.390;8.640;2023-05-10T12:47:30;0.63;;;0.30;;
54388;SDS011;40975;50.390;8.640;2023-05-10T12:49:56;0.55;;;0.45;;
54388;SDS011;40975;50.390;8.640;2023-05-10T12:52:22;0.65;;;0.65;;
54388;SDS011;40975;50.390;8.640;2023-05-10T12:54:47;0.93;;;0.32;;
54388;SDS011;40975;50.390;8.640;2023-05-10T12:57:13;0.40;;;0.40;;
54388;SDS011;40975;50.390;8.640;2023-05-10T12:59:38;0.60;;;0.57;;
54388;SDS011;40975;50.390;8.640;2023-05-10T13:02:03;0.20;;;0.10;;
54388;SDS011;40975;50.390;8.640;2023-05-10T13:04:29;0.20;;;0.20;;
54388;SDS011;40975;50.390;8.640;2023-05-10T13:06:54;1.42;;;0.20;;
54388;SDS011;40975;50.390;8.640;2023-05-10T13:09:23;2.67;;;0.40;;
54388;SDS011;40975;50.390;8.640;2023-05-10T13:11:49;0.20;;;0.20;;
54388;SDS011;40975;50.390;8.640;2023-05-10T13:14:15;0.28;;;0.28;;
54388;SDS011;40975;50.390;8.640;2023-05-10T13:16:40;0.20;;;0.20;;
54388;SDS011;40975;50.390;8.640;2023-05-10T13:19:06;3.22;;;0.50;;
54388;SDS011;40975;50.390;8.640;2023-05-10T13:21:31;2.28;;;0.30;;
54388;SDS011;40975;50.390;8.640;2023-05-10T13:23:57;0.75;;;0.32;;
54388;SDS011;40975;50.390;8.640;2023-05-10T13:26:22;0.20;;;0.20;;
54388;SDS011;40975;50.390;8.640;2023-05-10T13:28:48;0.85;;;0.47;;
54388;SDS011;40975;50.390;8.640;2023-05-10T13:31:14;0.30;;;0.30;;
54388;SDS011;40975;50.390;8.640;2023-05-10T13:33:40;0.32;;;0.30;;
54388;SDS011;40975;50.390;8.640;2023-05-10T13:36:05;0.30;;;0.30;;
54388;SDS011;40975;50.390;8.640;2023-05-10T13:38:31;0.30;;;0.30;;
54388;SDS011;40975;50.390;8.640;2023-05-10T13:40:56;0.80;;;0.35;;
54388;SDS011;40975;50.390;8.640;2023-05-10T13:43:23;1.10;;;0.20;;
54388;SDS011;40975;50.390;8.640;2023-05-10T13:45:49;0.63;;;0.15;;
54388;SDS011;40975;50.390;8.640;2023-05-10T13:48:14;1.13;;;0.40;;
54388;SDS011;40975;50.390;8.640;2023-05-10T13:50:40;1.25;;;0.30;;
54388;SDS011;40975;50.390;8.640;2023-05-10T13:53:05;0.20;;;0.20;;
54388;SDS011;40975;50.390;8.640;2023-05-10T13:55:30;2.25;;;0.20;;
54388;SDS011;40975;50.390;8.640;2023-05-10T13:57:56;0.65;;;0.30;;
54388;SDS011;40975;50.390;8.640;2023-05-10T14:00:21;0.10;;;0.10;;
54388;SDS011;40975;50.390;8.640;2023-05-10T14:02:46;1.52;;;0.40;;
54388;SDS011;40975;50.390;8.640;2023-05-10T14:05:12;0.45;;;0.28;;
54388;SDS011;40975;50.390;8.640;2023-05-10T14:07:37;0.40;;;0.30;;
54388;SDS011;40975;50.390;8.640;2023-05-10T14:10:02;1.00;;;0.30;;
54388;SDS011;40975;50.390;8.640;2023-05-10T14:12:28;0.82;;;0.60;;
54388;SDS011;40975;50.390;8.640;2023-05-10T14:14:54;0.80;;;0.30;;
54388;SDS011;40975;50.390;8.640;2023-05-10T14:17:19;0.70;;;0.70;;
54388;SDS011;40975;50.390;8.640;2023-05-10T14:19:44;2.50;;;0.60;;
54388;SDS011;40975;50.390;8.640;2023-05-10T14:22:10;3.70;;;0.52;;
54388;SDS011;40975;50.390;8.640;2023-05-10T14:24:35;3.22;;;0.82;;
54388;SDS011;40975;50.390;8.640;2023-05-10T14:27:00;1.17;;;0.98;;
54388;SDS011;40975;50.390;8.640;2023-05-10T14:29:26;2.00;;;1.02;;
54388;SDS011;40975;50.390;8.640;2023-05-10T14:31:52;2.45;;;1.45;;
54388;SDS011;40975;50.390;8.640;2023-05-10T14:34:17;3.20;;;1.08;;
54388;SDS011;40975;50.390;8.640;2023-05-10T14:36:42;2.78;;;1.40;;
54388;SDS011;40975;50.390;8.640;2023-05-10T14:39:08;2.03;;;1.08;;
54388;SDS011;40975;50.390;8.640;2023-05-10T14:41:35;0.75;;;0.60;;
54388;SDS011;40975;50.390;8.640;2023-05-10T14:44:00;2.22;;;0.40;;
54388;SDS011;40975;50.390;8.640;2023-05-10T14:46:26;0.55;;;0.35;;
54388;SDS011;40975;50.390;8.640;2023-05-10T14:48:52;1.35;;;0.60;;
54388;SDS011;40975;50.390;8.640;2023-05-10T14:51:17;3.00;;;0.60;;
54388;SDS011;40975;50.390;8.640;2023-05-10T14:53:46;3.15;;;0.70;;
54388;SDS011;40975;50.390;8.640;2023-05-10T14:56:12;2.13;;;0.60;;
54388;SDS011;40975;50.390;8.640;2023-05-10T14:58:38;0.60;;;0.60;;
54388;SDS011;40975;50.390;8.640;2023-05-10T15:01:03;1.33;;;0.75;;
54388;SDS011;40975;50.390;8.640;2023-05-10T15:03:28;1.00;;;0.47;;
54388;SDS011;40975;50.390;8.640;2023-05-10T15:05:54;1.42;;;0.50;;
54388;SDS011;40975;50.390;8.640;2023-05-10T15:08:21;0.85;;;0.80;;
54388;SDS011;40975;50.390;8.640;2023-05-10T15:10:46;0.98;;;0.40;;
54388;SDS011;40975;50.390;8.640;2023-05-10T15:13:11;0.57;;;0.40;;
54388;SDS011;40975;50.390;8.640;2023-05-10T15:15:37;0.25;;;0.25;;
54388;SDS011;40975;50.390;8.640;2023-05-10T15:18:02;0.80;;;0.80;;